메인 페이지
METAR-TAF:

METAR-TAF

공항 :

글래스고 공항

글래스고, 스코틀랜드

위도: 55-52N, 경도: 004-26W, 고도: 8m

현재 날씨관측

예보는 31분 전, 02:20시(UTC)에 발표되었습니다.
여러 방향의 바람 2kt
온도 11°C
습도 87%
기압 1017 hPa
시정 10km 이상
고도 4400ft 상공 구름 많음

METAR: EGPF 130220Z AUTO VRB02KT 9999 BKN044 11/09 Q1017

시각: 03:51 (02:51 UTC)

예보

예보는 3 시간 56분 전, 22:55시(UTC)에 발표되었습니다.
예보 대상 시간: 13일 00시부터 13일 24시까지 (UTC)
여러 방향의 바람 3kt
시정 10km 이상
고도 3500ft 상공 구름 보통
확률 30% :
일시적
13일 10시부터 13일 24시까지 (UTC)
시정: 7000m
약한비,

TAF: EGPF 122255Z 1300/1324 VRB03KT 9999 SCT035 PROB30 TEMPO 1310/1324 7000 -RA

4,000개 이상의 공항 관측 자료 및 예보 (METAR 및 TAF 보고).

지도상에서 검색 가능한 기상관측소가 노란 점과 빨간 점으로 표시되어 있습니다.

기상관측소 명을 보려면 표시 위로 마우스를 이동하세요.

날씨 관측과 예보를 보려면 클릭하세요.

지도 변경 : 확대하려면 엑스 표시가 있는 녹색 버튼, 축소하려면 빼기 표시가 있는 녹색 버튼, 다음 페이지의 지도를 보려면 녹색 화살표를 클릭하세요.


METAR-TAF: